createdAt,value
2019-04-14T00:02:17.048Z,67.70
2019-04-14T00:04:47.274Z,69.10
2019-04-14T00:07:16.547Z,68.90
2019-04-14T00:09:47.389Z,69.10
2019-04-14T00:12:16.518Z,69.90
2019-04-14T00:14:45.463Z,70.30
2019-04-14T00:17:15.165Z,70.40
2019-04-14T00:19:43.958Z,70.90
2019-04-14T00:22:12.682Z,70.70
2019-04-14T00:24:42.431Z,71.90
2019-04-14T00:27:11.308Z,71.80
2019-04-14T00:29:40.010Z,72.10
2019-04-14T00:32:09.538Z,71.90
2019-04-14T00:34:42.577Z,72.50
2019-04-14T00:37:25.186Z,72.50
2019-04-14T00:39:55.523Z,72.20
2019-04-14T00:42:32.030Z,72.30
2019-04-14T00:45:02.837Z,72.50
2019-04-14T00:47:49.222Z,72.90
2019-04-14T00:50:07.888Z,73.00
2019-04-14T00:52:37.249Z,73.30
2019-04-14T00:55:07.610Z,73.10
2019-04-14T00:57:37.571Z,73.00
2019-04-14T01:00:08.247Z,73.20
2019-04-14T01:02:36.894Z,72.90
2019-04-14T01:05:07.133Z,72.70
2019-04-14T01:07:36.902Z,73.00
2019-04-14T01:10:06.198Z,72.80
2019-04-14T01:12:34.851Z,73.40
2019-04-14T01:15:04.988Z,73.10
2019-04-14T01:17:33.651Z,73.30
2019-04-14T01:20:03.501Z,73.40
2019-04-14T01:22:33.466Z,74.20
2019-04-14T01:25:02.358Z,74.60
2019-04-14T01:27:32.001Z,74.90
2019-04-14T01:30:00.744Z,74.60
2019-04-14T01:32:30.409Z,74.10
2019-04-14T01:34:59.278Z,74.00
2019-04-14T01:37:28.978Z,74.00
2019-04-14T01:39:58.873Z,73.60
2019-04-14T01:42:28.826Z,73.20
2019-04-14T01:44:57.628Z,74.10
2019-04-14T01:47:27.004Z,74.10
2019-04-14T01:49:55.713Z,73.70
2019-04-14T01:52:34.916Z,73.00
2019-04-14T01:55:06.940Z,73.40
2019-04-14T01:57:37.217Z,73.40
2019-04-14T02:00:16.691Z,73.50
2019-04-14T02:02:46.465Z,73.00
2019-04-14T02:05:15.356Z,74.00
2019-04-14T02:07:45.159Z,74.10
2019-04-14T02:10:15.121Z,74.10
2019-04-14T02:12:43.855Z,74.70
2019-04-14T02:15:13.427Z,74.60
2019-04-14T02:17:42.027Z,74.60
2019-04-14T02:20:12.036Z,74.90
2019-04-14T02:22:41.901Z,75.20
2019-04-14T02:25:11.981Z,75.00
2019-04-14T02:27:40.759Z,75.40
2019-04-14T02:30:14.903Z,75.00
2019-04-14T02:33:07.793Z,75.20
2019-04-14T02:35:40.634Z,75.10
2019-04-14T02:38:12.294Z,75.30
2019-04-14T02:43:12.911Z,75.30
2019-04-14T02:45:46.808Z,74.90
2019-04-14T02:48:29.107Z,75.10
2019-04-14T02:50:40.613Z,75.30
2019-04-14T02:53:29.159Z,74.90
2019-04-14T02:55:42.278Z,75.00
2019-04-14T02:58:10.284Z,75.20
2019-04-14T03:00:41.171Z,75.00
2019-04-14T03:03:16.618Z,75.60
2019-04-14T03:05:49.072Z,75.50
2019-04-14T03:08:17.001Z,75.30
2019-04-14T03:10:45.960Z,75.50
2019-04-14T03:13:15.251Z,75.40
2019-04-14T03:15:48.133Z,75.70
2019-04-14T03:21:03.625Z,75.50
2019-04-14T03:23:53.364Z,75.70
2019-04-14T03:26:19.766Z,75.70
2019-04-14T03:28:50.772Z,75.90
2019-04-14T03:34:30.191Z,75.70
2019-04-14T03:36:59.666Z,76.00
2019-04-14T03:39:01.717Z,76.50
2019-04-14T03:41:29.203Z,76.20
2019-04-14T03:44:10.099Z,75.90
2019-04-14T03:46:37.126Z,75.80
2019-04-14T03:49:01.671Z,76.00
2019-04-14T03:51:44.763Z,76.50
2019-04-14T03:53:53.362Z,76.20
2019-04-14T03:56:09.233Z,76.40
2019-04-14T03:58:35.756Z,76.00
2019-04-14T04:01:04.627Z,76.10
2019-04-14T04:03:33.206Z,75.70
2019-04-14T04:06:03.082Z,75.90
2019-04-14T04:08:32.016Z,75.60
2019-04-14T04:11:02.069Z,75.70
2019-04-14T04:13:30.791Z,75.90
2019-04-14T04:16:16.009Z,75.80
2019-04-14T04:18:54.573Z,76.20
2019-04-14T04:21:19.186Z,76.50
2019-04-14T04:23:49.423Z,76.20
2019-04-14T04:26:23.329Z,76.60
2019-04-14T04:29:02.872Z,76.40
2019-04-14T04:31:36.064Z,76.80
2019-04-14T04:34:16.174Z,76.80
2019-04-14T04:36:59.564Z,76.50
2019-04-14T04:39:36.111Z,76.10
2019-04-14T04:42:03.117Z,76.00
2019-04-14T04:44:31.764Z,75.80
2019-04-14T04:47:01.224Z,75.60
2019-04-14T04:49:31.277Z,74.60
2019-04-14T04:52:00.369Z,72.90
2019-04-14T04:54:30.098Z,73.00
2019-04-14T04:57:00.128Z,73.10
2019-04-14T04:59:29.860Z,73.70
2019-04-14T05:01:58.732Z,73.20
2019-04-14T05:04:28.554Z,73.20
2019-04-14T05:07:01.294Z,73.30
2019-04-14T05:09:38.965Z,72.00
2019-04-14T05:12:15.374Z,71.80
2019-04-14T05:14:45.683Z,71.40
2019-04-14T05:17:16.888Z,71.50
2019-04-14T05:19:45.826Z,71.80
2019-04-14T05:22:17.446Z,71.50
2019-04-14T05:24:46.079Z,72.40
2019-04-14T05:27:14.780Z,73.00
2019-04-14T05:29:43.424Z,72.70
2019-04-14T05:32:13.014Z,71.80
2019-04-14T05:34:41.806Z,71.00
2019-04-14T05:37:11.514Z,70.90
2019-04-14T05:39:41.812Z,70.30
2019-04-14T05:42:17.149Z,69.70
2019-04-14T05:44:40.725Z,69.40
2019-04-14T05:47:09.422Z,69.40
2019-04-14T05:49:42.488Z,69.60
2019-04-14T05:52:08.265Z,69.50
2019-04-14T05:54:36.847Z,68.80
2019-04-14T05:57:06.519Z,69.50
2019-04-14T05:59:35.366Z,69.60
2019-04-14T06:02:04.822Z,69.70
2019-04-14T06:04:33.730Z,70.00
2019-04-14T06:07:02.328Z,69.80
2019-04-14T06:09:30.939Z,69.40
2019-04-14T06:11:59.531Z,69.10
2019-04-14T06:14:28.255Z,70.00
2019-04-14T06:16:56.984Z,68.70
2019-04-14T06:19:36.391Z,69.30
2019-04-14T06:21:55.818Z,68.80
2019-04-14T06:24:24.410Z,68.50
2019-04-14T06:26:53.119Z,68.30
2019-04-14T06:29:21.673Z,67.50
2019-04-14T06:31:51.886Z,68.30
2019-04-14T06:34:25.044Z,67.70
2019-04-14T06:37:01.225Z,67.80
2019-04-14T06:39:34.274Z,67.00
2019-04-14T06:42:03.212Z,67.10
2019-04-14T06:44:31.846Z,67.30
2019-04-14T06:47:00.436Z,67.90
2019-04-14T06:49:29.092Z,67.90
2019-04-14T06:51:57.754Z,67.70
2019-04-14T06:54:26.374Z,67.50
2019-04-14T06:56:54.961Z,67.50
2019-04-14T06:59:23.661Z,67.90
2019-04-14T07:01:52.258Z,67.40
2019-04-14T07:04:20.883Z,66.60
2019-04-14T07:06:51.387Z,65.80
2019-04-14T07:09:19.928Z,65.70
2019-04-14T07:11:48.511Z,65.40
2019-04-14T07:14:17.187Z,65.10
2019-04-14T07:16:45.737Z,65.00
2019-04-14T07:19:14.389Z,65.80
2019-04-14T07:21:42.995Z,65.30
2019-04-14T07:24:11.719Z,64.30
2019-04-14T07:26:40.869Z,64.30
2019-04-14T07:29:09.466Z,63.90
2019-04-14T07:31:56.242Z,63.00
2019-04-14T07:34:29.538Z,62.40
2019-04-14T07:37:19.219Z,62.20
2019-04-14T07:39:55.640Z,62.00
2019-04-14T07:42:31.652Z,61.30
2019-04-14T07:45:01.989Z,60.80
2019-04-14T07:47:32.194Z,60.20
2019-04-14T07:50:17.628Z,59.10
2019-04-14T07:52:48.011Z,58.90
2019-04-14T07:55:33.753Z,59.20
2019-04-14T07:58:09.826Z,58.30
2019-04-14T08:00:48.791Z,57.00
2019-04-14T08:03:35.435Z,55.90
2019-04-14T08:06:04.268Z,53.20
2019-04-14T08:08:32.971Z,51.00
2019-04-14T08:11:01.566Z,51.00
2019-04-14T08:13:30.143Z,48.70
2019-04-14T08:15:58.757Z,45.00
2019-04-14T08:18:29.074Z,43.70
2019-04-14T08:20:57.838Z,43.30
2019-04-14T08:23:26.424Z,41.50
2019-04-14T08:25:55.207Z,40.50
2019-04-14T08:28:23.851Z,40.50
2019-04-14T08:30:52.663Z,39.50
2019-04-14T08:33:21.261Z,40.30
2019-04-14T08:35:49.918Z,40.90
2019-04-14T08:38:18.647Z,41.60
2019-04-14T08:40:47.242Z,43.60
2019-04-14T08:43:34.016Z,43.90
2019-04-14T08:46:04.222Z,42.80
2019-04-14T08:48:34.455Z,43.50
2019-04-14T08:51:13.484Z,41.70
2019-04-14T08:53:43.745Z,41.70
2019-04-14T08:56:26.746Z,40.30
2019-04-14T08:58:59.417Z,40.70
2019-04-14T09:01:38.460Z,39.60
2019-04-14T09:04:08.718Z,40.30
2019-04-14T09:06:41.700Z,37.60
2019-04-14T09:09:16.967Z,37.30
2019-04-14T09:11:59.216Z,36.90
2019-04-14T09:14:27.874Z,37.70
2019-04-14T09:16:57.559Z,36.00
2019-04-14T09:19:26.264Z,35.50
2019-04-14T09:21:54.845Z,34.20
2019-04-14T09:24:23.623Z,32.60
2019-04-14T09:26:52.285Z,33.50
2019-04-14T09:29:21.008Z,36.40
2019-04-14T09:31:49.599Z,37.70
2019-04-14T09:34:18.251Z,37.80
2019-04-14T09:36:46.844Z,35.60
2019-04-14T09:39:15.548Z,33.20
2019-04-14T09:41:44.335Z,32.20
2019-04-14T09:44:12.999Z,34.00
2019-04-14T09:46:41.700Z,35.60
2019-04-14T09:49:10.309Z,36.50
2019-04-14T09:51:38.897Z,36.90
2019-04-14T09:54:07.627Z,36.50
2019-04-14T09:56:36.320Z,37.00
2019-04-14T09:59:05.122Z,35.80
2019-04-14T10:01:33.832Z,40.40
2019-04-14T10:04:02.531Z,39.80
2019-04-14T10:06:31.133Z,38.40
2019-04-14T10:08:59.818Z,39.20
2019-04-14T10:11:28.469Z,42.10
2019-04-14T10:13:57.086Z,43.00
2019-04-14T10:16:25.756Z,42.20
2019-04-14T10:18:54.352Z,43.30
2019-04-14T10:21:23.098Z,42.80
2019-04-14T10:23:51.764Z,41.80
2019-04-14T10:26:20.355Z,39.90
2019-04-14T10:28:50.781Z,40.20
2019-04-14T10:31:19.350Z,39.20
2019-04-14T10:33:47.932Z,41.50
2019-04-14T10:36:16.561Z,44.20
2019-04-14T10:38:45.149Z,40.90
2019-04-14T10:41:13.891Z,41.30
2019-04-14T10:43:42.620Z,40.80
2019-04-14T10:46:11.413Z,42.00
2019-04-14T10:48:39.989Z,41.10
2019-04-14T10:51:08.692Z,42.00
2019-04-14T10:53:37.469Z,42.30
2019-04-14T10:56:06.419Z,43.00
2019-04-14T10:58:35.155Z,45.80
2019-04-14T11:01:03.793Z,46.80
2019-04-14T11:03:32.502Z,47.60
2019-04-14T11:06:02.755Z,47.60
2019-04-14T11:08:32.044Z,45.50
2019-04-14T11:11:00.647Z,46.10
2019-04-14T11:13:29.215Z,44.00
2019-04-14T11:15:57.892Z,45.00
2019-04-14T11:18:26.491Z,46.00
2019-04-14T11:20:55.137Z,45.70
2019-04-14T11:23:23.798Z,45.80
2019-04-14T11:25:52.424Z,47.70
2019-04-14T11:28:21.132Z,45.60
2019-04-14T11:30:50.526Z,46.10
2019-04-14T11:33:26.938Z,45.40
2019-04-14T11:36:03.173Z,45.80
2019-04-14T11:38:33.482Z,44.70
2019-04-14T11:41:03.710Z,45.70
2019-04-14T11:43:32.494Z,45.60
2019-04-14T11:46:03.510Z,47.30
2019-04-14T11:48:31.960Z,48.20
2019-04-14T11:51:00.671Z,48.50
2019-04-14T11:53:29.251Z,48.20
2019-04-14T11:55:58.029Z,48.00
2019-04-14T11:58:29.040Z,49.10
2019-04-14T12:01:04.317Z,50.00
2019-04-14T12:03:37.743Z,49.80
2019-04-14T12:06:26.609Z,51.10
2019-04-14T12:09:14.982Z,50.90
2019-04-14T12:11:43.566Z,51.10
2019-04-14T12:14:12.329Z,50.40
2019-04-14T12:16:41.459Z,50.00
2019-04-14T12:19:10.222Z,50.60
2019-04-14T12:21:38.861Z,51.50
2019-04-14T12:24:07.522Z,51.00
2019-04-14T12:26:36.130Z,48.60
2019-04-14T12:29:06.325Z,49.50
2019-04-14T12:31:35.465Z,49.70
2019-04-14T12:34:04.412Z,50.00
2019-04-14T12:36:33.098Z,50.20
2019-04-14T12:39:01.955Z,50.50
2019-04-14T12:41:35.439Z,50.00
2019-04-14T12:44:18.176Z,50.60
2019-04-14T12:46:54.239Z,50.40
2019-04-14T12:49:27.063Z,50.60
2019-04-14T12:51:57.449Z,51.10
2019-04-14T12:54:27.082Z,50.70
2019-04-14T12:56:55.735Z,51.40
2019-04-14T12:59:24.493Z,52.70
2019-04-14T13:02:06.861Z,51.40
2019-04-14T13:04:35.623Z,51.60
2019-04-14T13:07:04.308Z,52.60
2019-04-14T13:09:32.911Z,53.30
2019-04-14T13:12:01.787Z,53.30
2019-04-14T13:14:30.530Z,52.90
2019-04-14T13:16:59.190Z,53.20
2019-04-14T13:19:27.839Z,53.30
2019-04-14T13:21:56.474Z,53.40
2019-04-14T13:24:25.128Z,53.70
2019-04-14T13:26:53.803Z,54.00
2019-04-14T13:29:22.496Z,55.00
2019-04-14T13:31:51.053Z,54.80
2019-04-14T13:34:19.782Z,53.70
2019-04-14T13:36:48.477Z,53.60
2019-04-14T13:39:17.182Z,53.30
2019-04-14T13:41:45.839Z,52.80
2019-04-14T13:44:14.470Z,52.30
2019-04-14T13:46:43.187Z,52.40
2019-04-14T13:49:11.878Z,53.20
2019-04-14T13:51:40.466Z,53.00
2019-04-14T13:54:09.171Z,52.90
2019-04-14T13:56:37.791Z,53.80
2019-04-14T13:59:06.594Z,53.60
2019-04-14T14:01:35.223Z,54.20
2019-04-14T14:04:04.160Z,54.00
2019-04-14T14:06:32.809Z,53.80
2019-04-14T14:09:01.320Z,54.20
2019-04-14T14:11:37.352Z,54.60
2019-04-14T14:14:13.514Z,54.50
2019-04-14T14:16:59.038Z,54.90
2019-04-14T14:19:34.833Z,54.20
2019-04-14T14:22:17.258Z,53.80
2019-04-14T14:24:50.353Z,54.30
2019-04-14T14:27:19.002Z,55.40
2019-04-14T14:29:47.703Z,55.20
2019-04-14T14:32:26.703Z,54.80
2019-04-14T14:34:55.366Z,54.10
2019-04-14T14:37:24.116Z,54.80
2019-04-14T14:39:53.593Z,54.40
2019-04-14T14:42:22.265Z,54.70
2019-04-14T14:45:04.866Z,54.60
2019-04-14T14:47:35.170Z,54.50
2019-04-14T14:50:15.683Z,54.50
2019-04-14T14:52:44.362Z,54.30
2019-04-14T14:55:13.155Z,53.10
2019-04-14T14:57:41.897Z,53.20
2019-04-14T15:00:12.934Z,53.10
2019-04-14T15:02:41.574Z,53.40
2019-04-14T15:05:10.531Z,53.70
2019-04-14T15:07:39.107Z,54.50
2019-04-14T15:10:07.961Z,54.60
2019-04-14T15:12:36.553Z,55.40
2019-04-14T15:15:06.557Z,57.30
2019-04-14T15:17:35.158Z,57.20
2019-04-14T15:20:05.100Z,56.20
2019-04-14T15:22:33.694Z,56.60
2019-04-14T15:25:02.263Z,56.70
2019-04-14T15:27:30.885Z,56.50
2019-04-14T15:29:59.479Z,56.20
2019-04-14T15:32:28.143Z,55.30
2019-04-14T15:34:56.721Z,55.60
2019-04-14T15:37:25.281Z,55.70
2019-04-14T15:39:53.873Z,55.20
2019-04-14T15:42:22.469Z,54.70
2019-04-14T15:44:51.099Z,54.40
2019-04-14T15:47:19.805Z,54.60
2019-04-14T15:49:48.397Z,54.50
2019-04-14T15:52:17.062Z,54.30
2019-04-14T15:54:45.725Z,53.90
2019-04-14T15:57:21.613Z,54.00
2019-04-14T16:00:04.157Z,54.20
2019-04-14T16:02:40.685Z,54.60
2019-04-14T16:05:14.242Z,55.20
2019-04-14T16:07:44.443Z,54.90
2019-04-14T16:10:23.718Z,55.00
2019-04-14T16:12:56.693Z,55.50
2019-04-14T16:15:26.926Z,55.80
2019-04-14T16:18:15.654Z,56.30
2019-04-14T16:20:45.426Z,56.80
2019-04-14T16:23:15.568Z,57.20
2019-04-14T16:25:51.894Z,57.60
2019-04-14T16:28:24.944Z,58.40
2019-04-14T16:31:13.540Z,58.30
2019-04-14T16:33:59.850Z,58.30
2019-04-14T16:36:28.404Z,59.00
2019-04-14T16:38:57.108Z,59.70
2019-04-14T16:41:25.678Z,60.60
2019-04-14T16:43:54.337Z,60.90
2019-04-14T16:46:23.043Z,61.50
2019-04-14T16:48:51.627Z,62.30
2019-04-14T16:51:30.646Z,63.20
2019-04-14T16:54:03.206Z,63.50
2019-04-14T16:56:50.737Z,64.30
2019-04-14T16:59:19.323Z,64.80
2019-04-14T17:01:47.979Z,65.50
2019-04-14T17:04:16.542Z,66.40
2019-04-14T17:06:45.393Z,68.20
2019-04-14T17:09:14.432Z,68.30
2019-04-14T17:11:45.777Z,69.30
2019-04-14T17:14:16.014Z,70.10
2019-04-14T17:17:01.329Z,71.40
2019-04-14T17:19:40.508Z,73.20
2019-04-14T17:22:13.664Z,74.70
2019-04-14T17:25:02.494Z,75.80
2019-04-14T17:27:38.883Z,76.10
2019-04-14T17:30:09.779Z,77.20
2019-04-14T17:32:58.505Z,78.00
2019-04-14T17:35:46.954Z,78.90
2019-04-14T17:38:22.882Z,79.70
2019-04-14T17:40:53.133Z,80.60
2019-04-14T17:43:26.354Z,80.90
2019-04-14T17:45:56.736Z,80.70
2019-04-14T17:48:35.907Z,80.60
2019-04-14T17:51:15.293Z,80.60
2019-04-14T17:53:51.870Z,79.90
2019-04-14T17:56:25.476Z,80.60
2019-04-14T17:58:58.563Z,82.00
2019-04-14T18:01:38.071Z,82.20
2019-04-14T18:04:11.058Z,82.20
2019-04-14T18:06:41.334Z,82.50
2019-04-14T18:09:28.846Z,82.70
2019-04-14T18:12:14.552Z,81.00
2019-04-14T18:14:47.733Z,81.40
2019-04-14T18:17:26.818Z,82.80
2019-04-14T18:19:59.843Z,81.30
2019-04-14T18:22:28.492Z,82.70
2019-04-14T18:24:57.073Z,82.40
2019-04-14T18:27:25.666Z,82.40
2019-04-14T18:29:58.959Z,82.60
2019-04-14T18:32:34.880Z,82.50
2019-04-14T18:35:08.652Z,81.00
2019-04-14T18:37:44.618Z,81.40
2019-04-14T18:40:17.641Z,81.00
2019-04-14T18:42:53.959Z,80.00
2019-04-14T18:45:27.067Z,81.80
2019-04-14T18:48:12.321Z,80.50
2019-04-14T18:50:58.658Z,82.50
2019-04-14T18:53:28.910Z,81.90
2019-04-14T18:56:08.192Z,81.80
2019-04-14T18:58:53.749Z,81.30
2019-04-14T19:01:23.961Z,79.80
2019-04-14T19:03:52.606Z,79.60
2019-04-14T19:06:21.387Z,79.70
2019-04-14T19:08:51.971Z,79.10
2019-04-14T19:11:25.294Z,79.40
2019-04-14T19:13:58.533Z,79.50
2019-04-14T19:16:39.115Z,77.80
2019-04-14T19:19:03.665Z,77.20
2019-04-14T19:21:32.938Z,75.80
2019-04-14T19:24:01.653Z,77.00
2019-04-14T19:26:30.248Z,77.20
2019-04-14T19:28:58.874Z,75.90
2019-04-14T19:31:27.602Z,75.70
2019-04-14T19:33:56.250Z,75.70
2019-04-14T19:36:25.084Z,75.90
2019-04-14T19:38:53.687Z,76.70
2019-04-14T19:41:22.294Z,76.60
2019-04-14T19:43:50.859Z,76.10
2019-04-14T19:46:19.623Z,76.20
2019-04-14T19:48:48.247Z,76.50
2019-04-14T19:51:16.869Z,76.40
2019-04-14T19:53:45.462Z,76.70
2019-04-14T19:56:14.135Z,76.00
2019-04-14T19:58:42.927Z,76.00
2019-04-14T20:01:11.573Z,75.80
2019-04-14T20:03:40.154Z,74.50
2019-04-14T20:06:08.825Z,73.80
2019-04-14T20:08:37.400Z,73.60
2019-04-14T20:11:06.046Z,72.70
2019-04-14T20:13:36.342Z,72.60
2019-04-14T20:16:15.811Z,71.50
2019-04-14T20:18:46.126Z,71.10
2019-04-14T20:21:19.043Z,71.00
2019-04-14T20:23:51.869Z,70.50
2019-04-14T20:26:21.227Z,70.00
2019-04-14T20:28:51.462Z,69.40
2019-04-14T20:31:37.753Z,69.50
2019-04-14T20:34:06.719Z,69.30
2019-04-14T20:36:35.431Z,69.70
2019-04-14T20:39:07.708Z,69.20
2019-04-14T20:41:36.463Z,69.20
2019-04-14T20:44:05.166Z,68.80
2019-04-14T20:46:33.748Z,68.10
2019-04-14T20:49:02.325Z,67.40
2019-04-14T20:51:30.956Z,66.50
2019-04-14T20:53:59.574Z,66.40
2019-04-14T20:56:28.171Z,66.20
2019-04-14T20:58:56.753Z,65.60
2019-04-14T21:01:26.990Z,65.50
2019-04-14T21:04:13.813Z,65.70
2019-04-14T21:06:50.366Z,65.90
2019-04-14T21:09:20.689Z,66.00
2019-04-14T21:12:03.022Z,65.30
2019-04-14T21:14:42.177Z,65.40
2019-04-14T21:17:12.417Z,65.30
2019-04-14T21:19:45.471Z,65.10
2019-04-14T21:22:15.665Z,64.50
2019-04-14T21:24:48.440Z,64.20
2019-04-14T21:27:34.658Z,64.10
2019-04-14T21:30:12.227Z,63.30
2019-04-14T21:32:48.511Z,63.50
2019-04-14T21:35:21.558Z,63.90
2019-04-14T21:37:51.893Z,63.60
2019-04-14T21:40:37.167Z,63.60
2019-04-14T21:43:05.872Z,63.20
2019-04-14T21:45:34.659Z,63.30
2019-04-14T21:48:03.298Z,63.30
2019-04-14T21:50:31.922Z,63.00
2019-04-14T21:53:00.584Z,63.00
2019-04-14T21:55:29.198Z,62.90
2019-04-14T21:58:05.766Z,63.00
2019-04-14T22:00:50.838Z,63.40
2019-04-14T22:03:21.122Z,63.70
2019-04-14T22:05:51.454Z,63.60
2019-04-14T22:08:21.749Z,64.10
2019-04-14T22:11:03.980Z,64.30
2019-04-14T22:13:32.620Z,63.60
2019-04-14T22:16:01.490Z,64.00
2019-04-14T22:18:30.073Z,64.40
2019-04-14T22:20:58.794Z,64.10
2019-04-14T22:23:27.373Z,64.00
2019-04-14T22:25:56.065Z,64.00
2019-04-14T22:28:25.031Z,64.10
2019-04-14T22:30:53.702Z,64.10
2019-04-14T22:33:22.332Z,64.70
2019-04-14T22:35:50.944Z,64.80
2019-04-14T22:38:19.628Z,65.20
2019-04-14T22:40:48.440Z,66.30
2019-04-14T22:43:17.104Z,65.20
2019-04-14T22:45:45.771Z,65.70
2019-04-14T22:48:14.361Z,65.70
2019-04-14T22:50:43.046Z,65.80
2019-04-14T22:53:11.628Z,65.80
2019-04-14T22:55:40.581Z,66.10
2019-04-14T22:58:09.203Z,66.20
2019-04-14T23:00:51.303Z,66.40
2019-04-14T23:03:21.559Z,66.80
2019-04-14T23:05:54.474Z,66.50
2019-04-14T23:08:33.870Z,66.70
2019-04-14T23:11:12.871Z,66.80
2019-04-14T23:13:45.842Z,67.30
2019-04-14T23:16:24.543Z,67.30
2019-04-14T23:19:00.747Z,67.40
2019-04-14T23:21:31.017Z,68.00
2019-04-14T23:24:01.275Z,67.80
2019-04-14T23:26:29.856Z,67.70
2019-04-14T23:28:58.659Z,67.40
2019-04-14T23:31:27.311Z,67.50
2019-04-14T23:33:55.982Z,67.50
2019-04-14T23:36:24.585Z,67.70
2019-04-14T23:38:53.165Z,68.00
2019-04-14T23:41:21.824Z,68.10
2019-04-14T23:43:50.552Z,68.60
2019-04-14T23:46:19.244Z,68.40
2019-04-14T23:48:47.890Z,68.40
2019-04-14T23:51:16.487Z,68.70
2019-04-14T23:53:45.285Z,68.60
2019-04-14T23:56:14.071Z,68.90
2019-04-14T23:58:42.694Z,68.80
